Aérodrome :
LOGIN :

S'inscrire | Disclaimer

   EN    FR    IT 

 










Légende :    VFR   VFR Marginal   IFR   IFR Intensif   IFR Très Intensif
Visi : 
Plafond : 
>= 8 km
>= 3000ft
5 à 8 km
1000 à 3000 ft
1500m à 5 km
500 à 1000 ft
800 à 1500m
200 à 500 ft
< 800m
< 200 ft
Symboles :   Orages  Brouillard  Fortes neiges  Fortes précipitations  Vent > 20 kt
SIGMETs :   Divers  Orages  Givrage  Turbulence  Onde Orograph.  Cendres Volcan.







- Altitude de l'aérodrome : 1197 ft
- Code IATA : SPM


ETAD - Spangdahlem Ab

DERNIER METAR :
  • 280158Z AUTO 21013KT 9999 BKN027 OVC038 04/01 A2933 RMK AO2 RAB02E11RAB17E26 CIG 027V034 SLP929 P0000 TSNO $

METARs EXPIRÉS :
  • 280144Z AUTO 22016KT 9999 SCT023 SCT029 BKN039 OVC046 04/01 A2933 RMK AO2 RAB02E11RAB17E26 TSNO $
  • 280126Z AUTO 22013G23KT 9999 BKN022 OVC027 04/01 A2933 RMK AO2 RAB02E11RAB17E26 TSNO $
  • 280111Z AUTO 22017G23KT 9999 OVC021 04/02 A2932 RMK AO2 RAB02E11 TSNO $
  • 280102Z AUTO 21014G21KT 9999 -RA BKN019 OVC025 04/02 A2932 RMK AO2 RAB02 TSNO $
  • 280055Z AUTO 22014G22KT 9999 OVC021 04/02 A2933 RMK AO2 RAE2359 TSNO $
  • 280031Z AUTO 22011KT 9999 OVC020 04/02 A2932 RMK AO2 RAE2359 TSNO $
  • 280016Z AUTO 22015KT 9999 BKN019 OVC024 04/02 A2933 RMK AO2 RAE2359 TSNO $

TAF TAF ETAD
Valide du 28 à 03h jusqu'au 01 à 09h UTC


280309Z 2803/0109 22012G20KT 9999 SCT015 BKN020 610209 611105 QNH2923INS
BECMG 2812/2813 21010G15KT 8000 -SHRA SCT007 BKN010 610209 611105 QNH2918INS
BECMG 2821/2822 24015G25KT 9000 -SHRASN SCT010 BKN015 610209 611103 QNH2942INS
BECMG 0106/0107 25015G30KT 9000 -SHRASN SCT015 BKN020 610209 611103 QNH2947INS TX08/2813Z TN00/0103Z LAST NO AMDS AFT 2803 NEXT 2805
Pas de NOTAMs connus pour ce terrain.
1 SIGMET publié pour la FIR Langen (EDGG) :
 
Turbulence forte
EDGG SIGMET 1 VALID 280100/280400 EDZF
EDGG LANGEN FIR SEV TURB FCST APRX 50NM WID LINE BTN N5218 E00800 - N4912 E00616 FL180/245 MOV E NC=



MET'MAP, la Météo Aéronautique d'un coup d'oeil ! - Copyright ORBIFLY Décembre 2007 - Disclaimer

ORBIFLY MET'MAP TEAM :

Programmation & Développement : Alexandra Zaïnal
Conception & Développement : Baudouin d'Aumeries
Co-Programmation & Développement : Marc-Olivier Méhu
Soutien technique & logistique : Manuel Goepfert

Contact : metmap@orbifly.com




SOURCES & CREDITS :

   NOAA